createdAt,value
2022-12-18T00:02:41.307Z,-7.46
2022-12-18T00:05:50.665Z,-7.36
2022-12-18T00:08:52.328Z,-7.46
2022-12-18T00:11:53.983Z,-7.48
2022-12-18T00:14:55.557Z,-7.57
2022-12-18T00:17:57.199Z,-7.51
2022-12-18T00:21:04.811Z,-7.48
2022-12-18T00:24:06.876Z,-7.43
2022-12-18T00:27:08.546Z,-7.47
2022-12-18T00:30:11.015Z,-7.49
2022-12-18T00:33:13.151Z,-7.60
2022-12-18T00:36:18.477Z,-7.55
2022-12-18T00:39:20.125Z,-7.61
2022-12-18T00:42:40.939Z,-7.57
2022-12-18T00:45:42.628Z,-7.56
2022-12-18T00:48:46.455Z,-7.58
2022-12-18T00:51:49.370Z,-7.64
2022-12-18T00:54:51.084Z,-7.82
2022-12-18T00:57:53.600Z,-7.85
2022-12-18T01:00:55.200Z,-7.84
2022-12-18T01:03:56.933Z,-7.81
2022-12-18T01:06:58.548Z,-7.76
2022-12-18T01:10:00.307Z,-7.76
2022-12-18T01:13:01.891Z,-7.74
2022-12-18T01:16:03.612Z,-7.62
2022-12-18T01:19:05.335Z,-7.70
2022-12-18T01:22:07.260Z,-7.63
2022-12-18T01:25:09.632Z,-7.72
2022-12-18T01:28:11.269Z,-7.75
2022-12-18T01:31:23.188Z,-7.61
2022-12-18T01:34:25.096Z,-7.68
2022-12-18T01:37:26.712Z,-7.68
2022-12-18T01:40:28.326Z,-7.68
2022-12-18T01:44:28.448Z,-7.64
2022-12-18T01:47:35.769Z,-7.85
2022-12-18T01:50:41.221Z,-7.91
2022-12-18T01:53:44.648Z,-7.92
2022-12-18T01:56:46.343Z,-7.85
2022-12-18T01:59:53.559Z,-7.90
2022-12-18T02:02:55.732Z,-7.91
2022-12-18T02:06:12.493Z,-7.93
2022-12-18T02:09:24.152Z,-7.99
2022-12-18T02:12:49.206Z,-8.14
2022-12-18T02:16:03.137Z,-8.11
2022-12-18T02:19:16.788Z,-8.17
2022-12-18T02:22:51.205Z,-8.24
2022-12-18T02:26:23.929Z,-8.21
2022-12-18T02:29:32.596Z,-8.17
2022-12-18T02:32:46.105Z,-8.20
2022-12-18T02:35:51.902Z,-8.19
2022-12-18T02:38:57.444Z,-8.18
2022-12-18T02:42:00.583Z,-8.16
2022-12-18T02:45:02.383Z,-8.42
2022-12-18T02:48:05.045Z,-8.46
2022-12-18T02:51:29.729Z,-8.38
2022-12-18T02:54:44.781Z,-8.58
2022-12-18T02:58:21.586Z,-8.45
2022-12-18T03:01:40.241Z,-8.53
2022-12-18T03:05:08.077Z,-8.48
2022-12-18T03:08:17.147Z,-8.48
2022-12-18T03:11:40.628Z,-8.65
2022-12-18T03:14:46.113Z,-8.65
2022-12-18T03:18:05.617Z,-8.60
2022-12-18T03:21:11.743Z,-8.55
2022-12-18T03:24:16.983Z,-8.44
2022-12-18T03:27:23.437Z,-8.51
2022-12-18T03:30:30.695Z,-8.55
2022-12-18T03:33:55.697Z,-8.62
2022-12-18T03:37:04.168Z,-8.51
2022-12-18T03:40:07.722Z,-8.40
2022-12-18T03:43:19.851Z,-8.33
2022-12-18T03:46:24.448Z,-8.36
2022-12-18T03:49:34.411Z,-8.34
2022-12-18T03:52:41.274Z,-8.25
2022-12-18T03:55:45.880Z,-8.33
2022-12-18T03:58:50.818Z,-8.25
2022-12-18T04:01:59.882Z,-8.28
2022-12-18T04:05:05.927Z,-8.37
2022-12-18T04:08:09.433Z,-8.34
2022-12-18T04:11:14.833Z,-8.40
2022-12-18T04:14:18.588Z,-8.36
2022-12-18T04:17:24.789Z,-8.50
2022-12-18T04:20:26.911Z,-8.57
2022-12-18T04:23:29.294Z,-8.59
2022-12-18T04:26:33.551Z,-8.62
2022-12-18T04:30:02.023Z,-8.70
2022-12-18T04:33:10.719Z,-8.58
2022-12-18T04:36:14.089Z,-8.53
2022-12-18T04:39:16.702Z,-8.54
2022-12-18T04:42:19.308Z,-8.62
2022-12-18T04:45:20.888Z,-8.55
2022-12-18T04:48:22.518Z,-8.59
2022-12-18T04:51:26.622Z,-8.57
2022-12-18T04:54:28.556Z,-8.73
2022-12-18T04:57:31.023Z,-8.70
2022-12-18T05:00:32.655Z,-8.74
2022-12-18T05:03:34.734Z,-8.83
2022-12-18T05:06:36.410Z,-8.76
2022-12-18T05:09:37.980Z,-8.67
2022-12-18T05:12:58.999Z,-8.73
2022-12-18T05:16:03.762Z,-8.75
2022-12-18T05:19:05.461Z,-8.83
2022-12-18T05:22:07.138Z,-8.62
2022-12-18T05:25:09.965Z,-8.59
2022-12-18T05:28:12.944Z,-8.64
2022-12-18T05:31:15.317Z,-8.57
2022-12-18T05:34:17.016Z,-8.50
2022-12-18T05:37:18.644Z,-8.51
2022-12-18T05:40:20.283Z,-8.65
2022-12-18T05:43:23.131Z,-8.80
2022-12-18T05:46:25.392Z,-8.90
2022-12-18T05:49:27.425Z,-8.90
2022-12-18T05:52:29.083Z,-8.84
2022-12-18T05:55:34.476Z,-8.83
2022-12-18T05:58:36.762Z,-8.88
2022-12-18T06:01:38.577Z,-8.84
2022-12-18T06:04:40.431Z,-8.81
2022-12-18T06:07:42.101Z,-8.80
2022-12-18T06:10:52.217Z,-8.77
2022-12-18T06:13:58.576Z,-8.68
2022-12-18T06:17:00.858Z,-8.71
2022-12-18T06:20:02.625Z,-8.73
2022-12-18T06:23:04.276Z,-8.72
2022-12-18T06:26:12.423Z,-8.78
2022-12-18T06:29:14.095Z,-8.78
2022-12-18T06:32:15.963Z,-8.77
2022-12-18T06:35:17.721Z,-8.74
2022-12-18T06:38:19.843Z,-8.74
2022-12-18T06:41:22.309Z,-8.69
2022-12-18T06:44:24.274Z,-8.80
2022-12-18T06:47:25.972Z,-8.79
2022-12-18T06:50:27.960Z,-8.81
2022-12-18T06:53:30.557Z,-8.73
2022-12-18T06:56:32.268Z,-8.76
2022-12-18T06:59:34.159Z,-8.97
2022-12-18T07:02:35.908Z,-9.05
2022-12-18T07:05:41.891Z,-8.89
2022-12-18T07:08:44.058Z,-8.94
2022-12-18T07:11:45.748Z,-8.95
2022-12-18T07:14:49.953Z,-9.04
2022-12-18T07:17:52.773Z,-9.10
2022-12-18T07:20:59.814Z,-9.24
2022-12-18T07:24:11.687Z,-9.29
2022-12-18T07:27:17.954Z,-9.29
2022-12-18T07:30:19.786Z,-9.28
2022-12-18T07:33:21.381Z,-9.24
2022-12-18T07:36:23.107Z,-9.33
2022-12-18T07:39:24.760Z,-9.33
2022-12-18T07:42:32.228Z,-9.41
2022-12-18T07:45:33.972Z,-9.28
2022-12-18T07:48:35.783Z,-9.13
2022-12-18T07:51:37.420Z,-9.19
2022-12-18T07:54:39.941Z,-9.19
2022-12-18T07:57:52.549Z,-9.12
2022-12-18T08:01:03.772Z,-9.35
2022-12-18T08:04:06.078Z,-9.32
2022-12-18T08:07:07.763Z,-9.17
2022-12-18T08:10:09.730Z,-9.08
2022-12-18T08:13:11.435Z,-9.25
2022-12-18T08:16:13.200Z,-9.36
2022-12-18T08:19:17.352Z,-9.36
2022-12-18T08:22:19.060Z,-9.23
2022-12-18T08:25:20.653Z,-9.16
2022-12-18T08:32:38.468Z,-8.93
2022-12-18T08:35:45.601Z,-8.73
2022-12-18T08:38:47.570Z,-8.60
2022-12-18T08:42:10.388Z,-8.69
2022-12-18T08:45:12.358Z,-8.48
2022-12-18T09:12:50.489Z,-8.13
2022-12-18T09:16:20.656Z,-8.78
2022-12-18T09:22:49.930Z,-8.50
2022-12-18T09:29:40.174Z,-8.71
2022-12-18T09:32:56.752Z,-8.46
2022-12-18T09:35:58.571Z,-8.31
2022-12-18T09:42:26.938Z,-8.05
2022-12-18T09:45:31.532Z,-7.95
2022-12-18T09:52:57.578Z,-7.59
2022-12-18T09:56:01.996Z,-7.45
2022-12-18T09:59:05.384Z,-7.40
2022-12-18T10:02:19.713Z,-7.38
2022-12-18T10:05:43.473Z,-7.43
2022-12-18T10:08:59.116Z,-7.28
2022-12-18T10:12:09.523Z,-6.99
2022-12-18T10:15:32.980Z,-6.73
2022-12-18T10:18:56.711Z,-6.18
2022-12-18T10:22:27.571Z,-5.98
2022-12-18T10:25:43.138Z,-6.20
2022-12-18T10:29:06.243Z,-6.13
2022-12-18T10:33:04.817Z,-6.02
2022-12-18T10:36:31.678Z,-5.80
2022-12-18T10:39:33.371Z,-6.20
2022-12-18T10:42:35.085Z,-5.81
2022-12-18T10:46:21.719Z,-5.78
2022-12-18T10:53:57.563Z,-4.87
2022-12-18T10:57:43.552Z,-5.03
2022-12-18T11:17:24.392Z,-4.60
2022-12-18T11:24:40.964Z,-4.39
2022-12-18T11:27:52.998Z,-5.14
2022-12-18T11:36:23.147Z,-4.13
2022-12-18T11:40:22.151Z,-4.04
2022-12-18T11:43:32.514Z,-4.43
2022-12-18T11:46:44.623Z,-4.55
2022-12-18T11:49:50.108Z,-4.65
2022-12-18T11:52:57.286Z,-4.47
2022-12-18T11:56:04.442Z,-4.43
2022-12-18T11:59:24.211Z,-4.64
2022-12-18T12:02:58.081Z,-4.85
2022-12-18T12:05:59.756Z,-4.87
2022-12-18T12:09:30.959Z,-5.25
2022-12-18T12:12:51.178Z,-5.27
2022-12-18T12:16:07.726Z,-5.16
2022-12-18T12:19:09.408Z,-5.36
2022-12-18T12:22:36.442Z,-5.16
2022-12-18T12:26:24.186Z,-5.23
2022-12-18T12:29:43.707Z,-5.22
2022-12-18T12:33:21.850Z,-4.97
2022-12-18T12:36:38.958Z,-4.74
2022-12-18T12:39:44.786Z,-4.78
2022-12-18T12:43:10.606Z,-4.86
2022-12-18T12:46:18.779Z,-4.54
2022-12-18T12:49:26.830Z,-4.49
2022-12-18T12:52:28.535Z,-4.37
2022-12-18T12:55:31.008Z,-4.65
2022-12-18T12:58:51.900Z,-4.50
2022-12-18T13:02:02.889Z,-4.27
2022-12-18T13:05:21.445Z,-4.12
2022-12-18T13:08:31.677Z,-4.17
2022-12-18T13:12:00.515Z,-4.07
2022-12-18T13:15:23.576Z,-4.18
2022-12-18T13:18:26.357Z,-4.05
2022-12-18T13:21:30.788Z,-4.55
2022-12-18T13:25:29.318Z,-4.46
2022-12-18T13:28:34.564Z,-4.10
2022-12-18T13:35:19.129Z,-4.11
2022-12-18T13:38:31.881Z,-4.01
2022-12-18T13:41:33.447Z,-4.16
2022-12-18T13:44:40.361Z,-4.22
2022-12-18T13:47:44.799Z,-4.14
2022-12-18T13:51:19.159Z,-3.97
2022-12-18T13:54:23.552Z,-4.24
2022-12-18T13:57:29.404Z,-4.43
2022-12-18T14:00:31.622Z,-4.57
2022-12-18T14:03:33.353Z,-4.62
2022-12-18T14:06:35.871Z,-4.68
2022-12-18T14:09:43.474Z,-4.54
2022-12-18T14:13:02.138Z,-4.59
2022-12-18T14:16:08.466Z,-4.72
2022-12-18T14:19:16.781Z,-4.85
2022-12-18T14:22:22.067Z,-4.95
2022-12-18T14:25:26.286Z,-4.93
2022-12-18T14:28:28.704Z,-4.80
2022-12-18T14:31:32.746Z,-5.00
2022-12-18T14:34:34.509Z,-5.20
2022-12-18T14:37:36.171Z,-5.30
2022-12-18T14:40:38.183Z,-5.21
2022-12-18T14:43:42.862Z,-5.39
2022-12-18T14:46:53.235Z,-5.35
2022-12-18T14:53:58.221Z,-5.14
2022-12-18T14:57:04.873Z,-5.52
2022-12-18T15:01:14.918Z,-5.73
2022-12-18T15:57:27.886Z,-6.30
2022-12-18T16:00:52.529Z,-6.04
2022-12-18T16:03:55.091Z,-6.21
2022-12-18T16:07:29.152Z,-6.26
2022-12-18T16:10:44.500Z,-6.36
2022-12-18T16:14:08.074Z,-6.41
2022-12-18T16:17:16.706Z,-6.26
2022-12-18T16:20:23.499Z,-6.50
2022-12-18T16:23:25.531Z,-6.45
2022-12-18T16:26:27.273Z,-6.03
2022-12-18T16:30:03.062Z,-6.17
2022-12-18T16:33:04.894Z,-6.38
2022-12-18T16:36:07.153Z,-6.13
2022-12-18T16:39:36.113Z,-6.44
2022-12-18T16:43:28.004Z,-6.10
2022-12-18T16:46:30.685Z,-6.15
2022-12-18T16:49:32.395Z,-6.18
2022-12-18T16:52:42.842Z,-6.19
2022-12-18T16:55:44.604Z,-6.03
2022-12-18T16:59:05.020Z,-5.99
2022-12-18T17:02:13.980Z,-6.02
2022-12-18T17:05:17.994Z,-6.08
2022-12-18T17:08:20.662Z,-6.06
2022-12-18T17:11:26.385Z,-5.99
2022-12-18T17:18:45.799Z,-5.86
2022-12-18T17:21:50.552Z,-5.83
2022-12-18T17:24:52.133Z,-5.92
2022-12-18T17:28:01.084Z,-5.93
2022-12-18T17:31:12.801Z,-6.02
2022-12-18T17:34:15.237Z,-6.20
2022-12-18T17:37:17.171Z,-6.10
2022-12-18T17:40:18.940Z,-6.10
2022-12-18T17:43:20.757Z,-5.94
2022-12-18T17:46:24.703Z,-5.99
2022-12-18T17:49:26.509Z,-6.00
2022-12-18T17:52:28.249Z,-6.05
2022-12-18T17:55:30.291Z,-5.93
2022-12-18T17:58:34.594Z,-5.83
2022-12-18T18:01:43.738Z,-5.91
2022-12-18T18:04:46.602Z,-5.92
2022-12-18T18:07:53.084Z,-5.87
2022-12-18T18:11:24.154Z,-5.88
2022-12-18T18:14:27.659Z,-5.89
2022-12-18T18:17:30.621Z,-5.82
2022-12-18T18:23:48.998Z,-5.84
2022-12-18T18:26:59.814Z,-5.95
2022-12-18T18:30:03.762Z,-5.84
2022-12-18T18:33:11.711Z,-5.83
2022-12-18T18:36:14.431Z,-5.91
2022-12-18T18:39:17.427Z,-5.92
2022-12-18T18:42:19.788Z,-5.81
2022-12-18T18:45:22.625Z,-5.78
2022-12-18T18:48:25.708Z,-5.76
2022-12-18T18:51:35.006Z,-5.85
2022-12-18T18:54:51.945Z,-5.84
2022-12-18T18:58:08.400Z,-5.74
2022-12-18T19:01:21.460Z,-5.81
2022-12-18T19:04:25.465Z,-5.81
2022-12-18T19:07:30.656Z,-5.80
2022-12-18T19:10:40.799Z,-5.89
2022-12-18T19:14:05.579Z,-6.04
2022-12-18T19:17:16.180Z,-6.07
2022-12-18T19:20:18.373Z,-6.03
2022-12-18T19:23:47.752Z,-5.96
2022-12-18T19:27:00.142Z,-5.76
2022-12-18T19:30:24.113Z,-6.15
2022-12-18T19:33:44.824Z,-6.15
2022-12-18T19:37:39.324Z,-5.64
2022-12-18T19:40:51.172Z,-5.89
2022-12-18T19:47:41.796Z,-5.69
2022-12-18T19:51:07.797Z,-5.82
2022-12-18T19:54:16.224Z,-5.67
2022-12-18T19:57:31.972Z,-5.54
2022-12-18T20:00:36.935Z,-5.85
2022-12-18T20:03:38.941Z,-5.71
2022-12-18T20:06:52.383Z,-5.67
2022-12-18T20:10:01.470Z,-5.68
2022-12-18T20:13:07.146Z,-5.67
2022-12-18T20:16:09.125Z,-5.61
2022-12-18T20:19:12.176Z,-5.63
2022-12-18T20:22:14.095Z,-5.53
2022-12-18T20:25:19.314Z,-5.77
2022-12-18T20:28:24.003Z,-6.11
2022-12-18T20:31:26.306Z,-5.79
2022-12-18T20:34:31.005Z,-5.71
2022-12-18T20:37:55.831Z,-5.67
2022-12-18T20:41:04.090Z,-5.72
2022-12-18T20:44:21.835Z,-5.95
2022-12-18T20:48:03.592Z,-5.36
2022-12-18T20:51:28.001Z,-5.69
2022-12-18T20:55:24.072Z,-5.31
2022-12-18T20:59:30.542Z,-5.33
2022-12-18T21:03:13.501Z,-5.80
2022-12-18T21:06:19.216Z,-5.62
2022-12-18T21:09:21.495Z,-5.43
2022-12-18T21:13:07.237Z,-5.39
2022-12-18T21:16:00.350Z,-5.56
2022-12-18T21:31:39.340Z,-5.14
2022-12-18T21:34:47.514Z,-5.31
2022-12-18T21:38:16.951Z,-5.57
2022-12-18T21:46:11.679Z,-5.41
2022-12-18T21:50:05.209Z,-5.12
2022-12-18T21:53:32.823Z,-5.22
2022-12-18T21:57:05.759Z,-5.12
2022-12-18T22:04:16.112Z,-4.77
2022-12-18T22:12:48.925Z,-5.22
2022-12-18T22:15:58.518Z,-5.07
2022-12-18T22:19:07.035Z,-5.11
2022-12-18T22:25:28.118Z,-4.98
2022-12-18T22:29:02.202Z,-4.85
2022-12-18T22:32:16.534Z,-4.93
2022-12-18T22:35:32.697Z,-5.02
2022-12-18T22:38:35.080Z,-4.78
2022-12-18T22:42:12.184Z,-4.39
2022-12-18T22:45:52.869Z,-4.64
2022-12-18T22:49:02.711Z,-4.81
2022-12-18T22:52:09.760Z,-4.83
2022-12-18T22:55:22.180Z,-4.95
2022-12-18T22:58:25.217Z,-4.55
2022-12-18T23:01:34.121Z,-4.65
2022-12-18T23:04:54.930Z,-4.60
2022-12-18T23:07:59.323Z,-4.50
2022-12-18T23:14:27.572Z,-4.05
2022-12-18T23:17:32.224Z,-4.06
2022-12-18T23:21:48.181Z,-3.76
2022-12-18T23:25:33.147Z,-4.00
2022-12-18T23:29:04.069Z,-3.61
2022-12-18T23:32:05.829Z,-3.99
2022-12-18T23:35:44.796Z,-3.38
2022-12-18T23:38:51.486Z,-3.40
2022-12-18T23:41:53.116Z,-3.26
2022-12-18T23:44:54.973Z,-3.28
2022-12-18T23:48:19.420Z,-3.56
2022-12-18T23:51:32.320Z,-3.02
2022-12-18T23:54:35.543Z,-3.12
2022-12-18T23:57:37.317Z,-3.15
